RST weather

Rochester International Airport
Rochester, Minnesota, United States

Public forecast

Using degrees Fahrenheit for public forecast. Weather courtesy of forecast.io.

METAR (pilot weather report)

Retrieved 2019/05/25 20:54 UTC (20 minutes ago):

KRST 252054Z 27016G24KT 10SM FEW120 21/10 A2994 RMK AO2 SLP135 T02110100 53007

TAF (pilot weather forecast)

Retrieved 2019/05/25 18:36 UTC (3 hours ago):

TAF KRST 251734Z 2518/2618 27012KT P6SM SKC FM252300 30009KT P6SM FEW250 FM260100 32006KT P6SM FEW250 FM260600 35005KT P6SM BKN250 FM261100 VRB03KT P6SM SCT250